Time;durP1;ratioP1;P1;durP2;ratioP2;P2;SDS_P1;SDS_P2;PMS_P1;PMS_P2;Temp;Humidity;BMP_temperature;BMP_pressure;BME280_temperature;BME280_humidity;BME280_pressure;Samples;Min_cycle;Max_cycle;Signal;HPM_P1;HPM_P2
2021/08/03 00:02:00;;;;;;;24.35;14.88;;;;;;;;;;5074454;28;20101;-65
2021/08/03 00:04:32;;;;;;;30.42;15.52;;;;;;;;;;5075041;28;20020;-64
2021/08/03 00:06:58;;;;;;;25.85;15.75;;;;;;;;;;5074768;28;20027;-64
2021/08/03 00:09:24;;;;;;;25.50;14.93;;;;;;;;;;5075075;28;20043;-65
2021/08/03 00:11:52;;;;;;;23.60;14.55;;;;;;;;;;5076172;28;20388;-65
2021/08/03 00:14:18;;;;;;;27.05;16.13;;;;;;;;;;5073928;28;20477;-64
2021/08/03 00:16:44;;;;;;;25.38;16.38;;;;;;;;;;5055349;28;20032;-64
2021/08/03 00:19:11;;;;;;;26.17;17.10;;;;;;;;;;5074248;28;20028;-64
2021/08/03 00:21:37;;;;;;;28.45;16.10;;;;;;;;;;5074212;28;20155;-64
2021/08/03 00:24:04;;;;;;;28.98;15.43;;;;;;;;;;5073161;28;20044;-65
2021/08/03 00:26:30;;;;;;;25.95;16.65;;;;;;;;;;5054639;28;20053;-64
2021/08/03 00:28:56;;;;;;;29.17;14.38;;;;;;;;;;5055852;28;20431;-65
2021/08/03 00:31:23;;;;;;;25.17;15.10;;;;;;;;;;5073627;28;20033;-65
2021/08/03 00:33:50;;;;;;;26.73;15.48;;;;;;;;;;5073578;28;20078;-65
2021/08/03 00:36:16;;;;;;;25.23;15.45;;;;;;;;;;5072921;28;20027;-64
2021/08/03 00:38:42;;;;;;;26.27;16.52;;;;;;;;;;5073599;28;20021;-65
2021/08/03 00:41:10;;;;;;;27.42;17.95;;;;;;;;;;5073534;28;20385;-64
2021/08/03 00:43:36;;;;;;;28.02;16.67;;;;;;;;;;5073247;28;20040;-64
2021/08/03 00:46:02;;;;;;;26.92;17.17;;;;;;;;;;5073007;28;20047;-64
2021/08/03 00:48:28;;;;;;;27.25;17.25;;;;;;;;;;5073676;28;20035;-64
2021/08/03 00:50:54;;;;;;;28.13;17.77;;;;;;;;;;5055870;28;20495;-65
2021/08/03 00:53:20;;;;;;;29.70;17.90;;;;;;;;;;5073051;28;20073;-65
2021/08/03 00:55:47;;;;;;;27.00;17.42;;;;;;;;;;5072435;28;20054;-64
2021/08/03 00:58:13;;;;;;;28.45;17.65;;;;;;;;;;5054996;28;20020;-65
2021/08/03 01:00:39;;;;;;;27.30;17.13;;;;;;;;;;5055220;28;20028;-64
2021/08/03 01:03:05;;;;;;;24.77;16.77;;;;;;;;;;5072918;28;20025;-65
2021/08/03 01:05:34;;;;;;;31.63;17.95;;;;;;;;;;5054405;28;20392;-64
2021/08/03 01:08:08;;;;;;;29.05;17.67;;;;;;;;;;5054976;28;20032;-65
2021/08/03 01:10:38;;;;;;;24.27;15.98;;;;;;;;;;5071714;28;20024;-64
2021/08/03 01:13:11;;;;;;;27.27;17.02;;;;;;;;;;5071492;28;20049;-65
2021/08/03 01:15:56;;;;;;;26.63;17.15;;;;;;;;;;5071926;28;20029;-63
2021/08/03 01:18:28;;;;;;;26.60;16.95;;;;;;;;;;5054761;28;20024;-65
2021/08/03 01:21:00;;;;;;;27.02;16.95;;;;;;;;;;5054939;28;20498;-65
2021/08/03 01:23:32;;;;;;;25.17;17.45;;;;;;;;;;5072555;28;20055;-65
2021/08/03 01:26:01;;;;;;;26.25;16.92;;;;;;;;;;5071726;28;20032;-65
2021/08/03 01:28:29;;;;;;;27.08;17.67;;;;;;;;;;5072096;28;20043;-64
2021/08/03 01:31:01;;;;;;;27.08;17.75;;;;;;;;;;5054557;28;20480;-64
2021/08/03 01:33:27;;;;;;;29.15;17.55;;;;;;;;;;5054290;28;20033;-64
2021/08/03 01:35:56;;;;;;;28.83;18.40;;;;;;;;;;5071451;28;20032;-64
2021/08/03 01:38:23;;;;;;;28.92;18.10;;;;;;;;;;5072427;28;20469;-65
2021/08/03 01:40:50;;;;;;;28.52;18.20;;;;;;;;;;5054471;28;20025;-65
2021/08/03 01:43:17;;;;;;;29.17;17.48;;;;;;;;;;5072082;28;20135;-65
2021/08/03 01:45:44;;;;;;;30.52;20.48;;;;;;;;;;5071496;28;20404;-65
2021/08/03 01:48:10;;;;;;;29.70;18.63;;;;;;;;;;5072147;28;20161;-65
2021/08/03 01:50:36;;;;;;;26.98;18.80;;;;;;;;;;5054536;28;20511;-63
2021/08/03 01:53:03;;;;;;;28.45;18.00;;;;;;;;;;5072217;28;20028;-64
2021/08/03 01:55:29;;;;;;;26.67;17.70;;;;;;;;;;5053608;28;20016;-65
2021/08/03 01:57:56;;;;;;;32.53;18.67;;;;;;;;;;5071983;28;20029;-65
2021/08/03 02:00:22;;;;;;;28.20;17.02;;;;;;;;;;5071991;28;20029;-65
2021/08/03 02:02:48;;;;;;;30.63;19.45;;;;;;;;;;5071847;28;20027;-65
2021/08/03 02:05:15;;;;;;;27.75;18.58;;;;;;;;;;5071286;28;20030;-66
2021/08/03 02:07:41;;;;;;;28.23;18.13;;;;;;;;;;5053870;28;20063;-65
2021/08/03 02:10:07;;;;;;;28.05;18.02;;;;;;;;;;5053852;28;20480;-64
2021/08/03 02:12:34;;;;;;;30.40;20.08;;;;;;;;;;5071865;28;20043;-64
2021/08/03 02:15:01;;;;;;;33.28;19.33;;;;;;;;;;5072036;28;20481;-64
2021/08/03 02:17:27;;;;;;;30.40;22.02;;;;;;;;;;5054184;28;20027;-64
2021/08/03 02:19:53;;;;;;;29.98;19.98;;;;;;;;;;5054132;28;20059;-66
2021/08/03 02:22:19;;;;;;;31.27;20.58;;;;;;;;;;5055655;28;20025;-65
2021/08/03 02:24:45;;;;;;;35.05;22.42;;;;;;;;;;5073809;28;20078;-65
2021/08/03 02:27:11;;;;;;;34.95;22.52;;;;;;;;;;5073078;28;20107;-64
2021/08/03 02:29:38;;;;;;;38.22;23.52;;;;;;;;;;5074615;28;20476;-64
2021/08/03 02:32:10;;;;;;;35.33;24.20;;;;;;;;;;5074021;28;20020;-61
2021/08/03 02:34:47;;;;;;;35.55;24.13;;;;;;;;;;5053579;28;20033;-64
2021/08/03 02:37:16;;;;;;;38.25;24.98;;;;;;;;;;5053345;28;20043;-65
2021/08/03 02:39:42;;;;;;;;;;;;;;;;;;5054277;28;20048;-64
2021/08/03 02:42:08;;;;;;;32.55;21.48;;;;;;;;;;5053164;28;19908;-64
2021/08/03 02:44:35;;;;;;;40.28;25.80;;;;;;;;;;5053479;28;20029;-63
2021/08/03 02:47:08;;;;;;;36.17;25.25;;;;;;;;;;5070663;28;20033;-64
2021/08/03 02:49:45;;;;;;;37.08;25.30;;;;;;;;;;5075087;28;20024;-63
2021/08/03 02:52:12;;;;;;;33.35;26.25;;;;;;;;;;5075321;28;20020;-64
2021/08/03 02:54:39;;;;;;;32.90;24.27;;;;;;;;;;5075183;28;20116;-64
2021/08/03 02:57:08;;;;;;;36.65;24.13;;;;;;;;;;5074706;28;20431;-64
2021/08/03 02:59:34;;;;;;;;;;;;;;;;;;5075742;28;20029;-64
2021/08/03 03:02:00;;;;;;;34.53;22.67;;;;;;;;;;5074906;28;20331;-65
2021/08/03 03:05:04;;;;;;;32.85;23.10;;;;;;;;;;5075355;28;20083;-64
2021/08/03 03:07:34;;;;;;;33.45;23.55;;;;;;;;;;4976539;28;20030;-65
2021/08/03 03:10:02;;;;;;;35.75;24.95;;;;;;;;;;4993639;28;20058;-65
2021/08/03 03:12:30;;;;;;;36.70;25.98;;;;;;;;;;5017513;28;20036;-64
2021/08/03 03:14:57;;;;;;;39.40;28.05;;;;;;;;;;5074941;28;20481;-63
2021/08/03 03:17:24;;;;;;;39.47;29.00;;;;;;;;;;5074330;28;20150;-64
2021/08/03 03:19:52;;;;;;;40.53;29.02;;;;;;;;;;5057183;28;20033;-64
2021/08/03 03:22:17;;;;;;;38.63;29.15;;;;;;;;;;5074709;28;20047;-64
2021/08/03 03:24:45;;;;;;;39.80;26.88;;;;;;;;;;5074700;28;20489;-64
2021/08/03 03:27:11;;;;;;;37.70;26.00;;;;;;;;;;5056445;28;20028;-64
2021/08/03 03:29:39;;;;;;;35.63;26.02;;;;;;;;;;5074643;28;20083;-64
2021/08/03 03:32:05;;;;;;;35.90;24.50;;;;;;;;;;5056585;28;20024;-64
2021/08/03 03:34:32;;;;;;;32.88;24.25;;;;;;;;;;5056468;28;20024;-65
2021/08/03 03:36:58;;;;;;;31.65;22.48;;;;;;;;;;5055855;28;20023;-64
2021/08/03 03:39:24;;;;;;;34.38;24.70;;;;;;;;;;5074395;28;20037;-61
2021/08/03 03:41:52;;;;;;;34.85;24.25;;;;;;;;;;5056250;28;20031;-65
2021/08/03 03:44:18;;;;;;;34.45;23.58;;;;;;;;;;5056327;28;20075;-64
2021/08/03 03:46:52;;;;;;;34.35;23.98;;;;;;;;;;5073813;28;20113;-64
2021/08/03 03:49:23;;;;;;;34.42;25.05;;;;;;;;;;5056374;28;20036;-64
2021/08/03 03:51:49;;;;;;;38.85;25.90;;;;;;;;;;5074380;28;20031;-64
2021/08/03 03:54:18;;;;;;;34.50;24.80;;;;;;;;;;5074211;28;20035;-64
2021/08/03 03:56:50;;;;;;;38.22;24.50;;;;;;;;;;5055562;28;20527;-64
2021/08/03 03:59:17;;;;;;;33.88;23.00;;;;;;;;;;5055922;28;20221;-64
2021/08/03 04:01:44;;;;;;;32.75;22.33;;;;;;;;;;5074036;28;20025;-64
2021/08/03 04:04:11;;;;;;;34.63;23.98;;;;;;;;;;5056328;28;20029;-64
2021/08/03 04:06:37;;;;;;;33.03;23.08;;;;;;;;;;5055431;28;20032;-64
2021/08/03 04:09:03;;;;;;;35.95;24.13;;;;;;;;;;5055760;28;20025;-64
2021/08/03 04:11:29;;;;;;;34.83;25.08;;;;;;;;;;5055945;28;20052;-64
2021/08/03 04:13:56;;;;;;;39.05;27.55;;;;;;;;;;5073597;28;20081;-64
2021/08/03 04:16:22;;;;;;;38.20;28.20;;;;;;;;;;5055293;28;20025;-64
2021/08/03 04:18:48;;;;;;;37.25;28.08;;;;;;;;;;5055735;28;20052;-64
2021/08/03 04:21:14;;;;;;;36.20;26.95;;;;;;;;;;5056030;28;20055;-65
2021/08/03 04:23:40;;;;;;;39.15;25.48;;;;;;;;;;5055596;28;20073;-65
2021/08/03 04:26:06;;;;;;;37.08;26.30;;;;;;;;;;5055069;28;20028;-64
2021/08/03 04:28:32;;;;;;;36.22;27.30;;;;;;;;;;5073396;28;20108;-65
2021/08/03 04:30:59;;;;;;;38.55;27.20;;;;;;;;;;5055383;28;20031;-64
2021/08/03 04:33:26;;;;;;;38.70;28.75;;;;;;;;;;5073156;28;20384;-64
2021/08/03 04:35:51;;;;;;;38.35;29.10;;;;;;;;;;5054969;28;20031;-64
2021/08/03 04:38:17;;;;;;;38.45;27.65;;;;;;;;;;5055455;28;20020;-63
2021/08/03 04:40:43;;;;;;;40.70;28.33;;;;;;;;;;5055280;28;20035;-64
2021/08/03 04:43:09;;;;;;;36.00;26.00;;;;;;;;;;5072997;28;20038;-64
2021/08/03 04:45:35;;;;;;;35.63;25.27;;;;;;;;;;5054775;28;20035;-64
2021/08/03 04:48:01;;;;;;;36.10;27.08;;;;;;;;;;5055496;28;20020;-64
2021/08/03 04:50:28;;;;;;;34.00;24.60;;;;;;;;;;5055487;28;20066;-64
2021/08/03 04:52:55;;;;;;;33.65;25.15;;;;;;;;;;5072870;28;20031;-64
2021/08/03 04:55:21;;;;;;;33.35;23.70;;;;;;;;;;5072045;28;20065;-65
2021/08/03 04:57:47;;;;;;;35.85;25.33;;;;;;;;;;5075007;28;20480;-64
2021/08/03 05:00:14;;;;;;;33.05;25.27;;;;;;;;;;5075098;28;20483;-65
2021/08/03 05:02:40;;;;;;;34.13;24.02;;;;;;;;;;5056758;28;20047;-64
2021/08/03 05:05:07;;;;;;;38.75;26.35;;;;;;;;;;5072895;28;20104;-61
2021/08/03 05:07:33;;;;;;;36.05;25.25;;;;;;;;;;5072318;28;20020;-65
2021/08/03 05:10:00;;;;;;;37.72;27.67;;;;;;;;;;5054738;28;20142;-65
2021/08/03 05:12:26;;;;;;;34.38;25.58;;;;;;;;;;5071923;28;20091;-64
2021/08/03 05:14:58;;;;;;;35.38;26.55;;;;;;;;;;5072262;28;20036;-64
2021/08/03 05:17:24;;;;;;;35.15;25.25;;;;;;;;;;5049828;28;20017;-65
2021/08/03 05:19:51;;;;;;;40.63;27.65;;;;;;;;;;5071953;28;20029;-61
2021/08/03 05:22:17;;;;;;;36.40;25.95;;;;;;;;;;5054239;28;20028;-60
2021/08/03 05:24:43;;;;;;;34.40;24.55;;;;;;;;;;5054132;28;20051;-60
2021/08/03 05:27:09;;;;;;;34.58;24.80;;;;;;;;;;5071472;28;20098;-60
2021/08/03 05:29:35;;;;;;;41.50;26.92;;;;;;;;;;5072170;28;20434;-60
2021/08/03 05:32:01;;;;;;;33.97;25.05;;;;;;;;;;5072270;28;20032;-57
2021/08/03 05:34:27;;;;;;;33.60;24.58;;;;;;;;;;5054084;28;20029;-57
2021/08/03 05:36:53;;;;;;;38.10;26.05;;;;;;;;;;5053906;28;20031;-59
2021/08/03 05:39:19;;;;;;;36.92;25.02;;;;;;;;;;5053597;28;20056;-59
2021/08/03 05:41:45;;;;;;;33.67;23.90;;;;;;;;;;5072527;28;20034;-58
2021/08/03 05:44:11;;;;;;;31.13;21.52;;;;;;;;;;5068153;22;20051;-63
2021/08/03 05:46:37;;;;;;;33.33;21.75;;;;;;;;;;5069766;28;20104;-64
2021/08/03 05:49:03;;;;;;;30.67;20.30;;;;;;;;;;5052667;28;20033;-63
2021/08/03 05:51:29;;;;;;;30.70;20.75;;;;;;;;;;5070342;28;20021;-63
2021/08/03 05:53:55;;;;;;;28.52;20.92;;;;;;;;;;5070239;28;20440;-63
2021/08/03 05:56:21;;;;;;;33.65;21.42;;;;;;;;;;5070034;28;20020;-64
2021/08/03 05:58:47;;;;;;;31.80;23.00;;;;;;;;;;5068652;28;20027;-62
2021/08/03 06:01:13;;;;;;;33.40;21.70;;;;;;;;;;5052524;28;20027;-64
2021/08/03 06:03:39;;;;;;;34.15;21.40;;;;;;;;;;5070176;28;20111;-64
2021/08/03 06:06:06;;;;;;;33.08;22.02;;;;;;;;;;5051663;28;20068;-64
2021/08/03 06:08:33;;;;;;;32.53;21.17;;;;;;;;;;5070492;28;20460;-64
2021/08/03 06:11:00;;;;;;;33.30;23.70;;;;;;;;;;5051985;28;20024;-63
2021/08/03 06:13:27;;;;;;;31.65;23.08;;;;;;;;;;5052155;28;20032;-64
2021/08/03 06:15:54;;;;;;;28.17;21.00;;;;;;;;;;5069467;28;20016;-64
2021/08/03 06:18:29;;;;;;;31.58;23.65;;;;;;;;;;5051666;28;20073;-63
2021/08/03 06:20:55;;;;;;;29.45;21.58;;;;;;;;;;5052277;28;20472;-64
2021/08/03 06:23:21;;;;;;;33.75;22.42;;;;;;;;;;5069266;28;20033;-63
2021/08/03 06:25:47;;;;;;;32.25;23.42;;;;;;;;;;5069373;28;20065;-62
2021/08/03 06:28:17;;;;;;;29.63;22.02;;;;;;;;;;5069727;28;20421;-62
2021/08/03 06:30:43;;;;;;;34.55;24.48;;;;;;;;;;5070318;28;20024;-62
2021/08/03 06:33:09;;;;;;;31.58;23.13;;;;;;;;;;5051821;28;20476;-62
2021/08/03 06:35:35;;;;;;;31.15;22.95;;;;;;;;;;5069504;28;20021;-62
2021/08/03 06:38:01;;;;;;;31.58;24.17;;;;;;;;;;5069864;28;20100;-62
2021/08/03 06:40:29;;;;;;;34.97;24.63;;;22.20;99.90;;;;;;5070103;28;20020;-61
2021/08/03 06:43:02;;;;;;;;;;;16.10;99.90;;;;;;5070372;28;20492;-62
2021/08/03 06:45:30;;;;;;;40.25;26.27;;;15.60;99.90;;;;;;5069695;28;19961;-63
2021/08/03 06:48:17;;;;;;;29.77;22.52;;;15.80;99.90;;;;;;5070285;28;20444;-62
2021/08/03 06:50:55;;;;;;;30.33;24.15;;;15.90;99.90;;;;;;5069890;28;20104;-62
2021/08/03 06:53:23;;;;;;;36.00;24.23;;;16.00;99.90;;;;;;5070253;28;20424;-67
2021/08/03 06:55:50;;;;;;;31.85;23.88;;;16.00;99.90;;;;;;5069591;28;20021;-66
2021/08/03 06:58:39;;;;;;;30.52;23.70;;;16.10;99.90;;;;;;5068521;28;20085;-66
2021/08/03 07:01:07;;;;;;;29.92;23.65;;;16.10;99.90;;;;;;5059029;28;20044;-66
2021/08/03 07:03:45;;;;;;;30.88;24.23;;;16.20;99.90;;;;;;5070337;28;20558;-66
2021/08/03 07:06:13;;;;;;;30.47;24.57;;;16.20;99.90;;;;;;5050891;28;20480;-65
2021/08/03 07:08:40;;;;;;;35.55;23.45;;;;;;;;;;5052527;28;20036;-66
2021/08/03 07:11:07;;;;;;;30.60;23.77;;;;;;;;;;5070388;28;20028;-66
2021/08/03 07:13:33;;;;;;;29.17;22.58;;;;;;;;;;5070707;28;20069;-66
2021/08/03 07:16:01;;;;;;;28.15;21.75;;;;;;;;;;5070133;28;20028;-65
2021/08/03 07:18:27;;;;;;;29.92;23.23;;;;;;;;;;5071491;28;20024;-65
2021/08/03 07:20:54;;;;;;;28.48;22.92;;;;;;;;;;5053200;28;20460;-66
2021/08/03 07:23:21;;;;;;;33.08;21.85;;;;;;;;;;5052865;28;20059;-66
2021/08/03 07:25:47;;;;;;;28.05;21.38;;;;;;;;;;5069976;28;20139;-66
2021/08/03 07:28:13;;;;;;;27.33;21.45;;;;;;;;;;5070375;28;20566;-66
2021/08/03 07:30:42;;;;;;;28.92;20.75;;;;;;;;;;5070815;28;20062;-66
2021/08/03 07:33:07;;;;;;;;;;;;;;;;;;5071186;28;20037;-66
2021/08/03 07:35:33;;;;;;;27.58;19.85;;;;;;;;;;5055405;28;19916;-65
2021/08/03 07:37:59;;;;;;;30.25;21.52;;;;;;;;;;5056321;28;20013;-65
2021/08/03 07:40:25;;;;;;;24.65;19.30;;;;;;;;;;5056503;28;20067;-65
2021/08/03 07:42:51;;;;;;;27.67;19.95;;;;;;;;;;5074304;28;20037;-66
2021/08/03 07:45:17;;;;;;;27.85;19.23;;;16.30;99.90;;;;;;5056501;28;20032;-67
2021/08/03 07:47:42;;;;;;;27.48;20.08;;;17.80;99.90;;;;;;5074674;28;20369;-66
2021/08/03 07:50:11;;;;;;;26.30;18.75;;;18.10;99.90;;;;;;5056450;28;20029;-67
2021/08/03 07:52:37;;;;;;;24.17;17.95;;;18.50;99.90;;;;;;5074008;28;20070;-66
2021/08/03 07:55:03;;;;;;;24.58;18.85;;;18.60;99.90;;;;;;5073457;28;20052;-65
2021/08/03 07:57:29;;;;;;;29.23;19.35;;;18.50;99.90;;;;;;5071639;28;20033;-67
2021/08/03 07:59:54;;;;;;;27.42;18.35;;;18.50;99.90;;;;;;5056138;28;20461;-65
2021/08/03 08:02:21;;;;;;;24.45;18.05;;;18.40;99.90;;;;;;5073817;28;20146;-67
2021/08/03 08:04:47;;;;;;;24.20;19.13;;;18.40;99.90;;;;;;5073640;28;20039;-66
2021/08/03 08:07:13;;;;;;;24.55;18.38;;;18.60;99.90;;;;;;5073046;28;20016;-66
2021/08/03 08:09:38;;;;;;;25.05;18.50;;;18.70;99.90;;;;;;5073628;28;20040;-66
2021/08/03 08:12:04;;;;;;;23.65;18.48;;;18.90;99.90;;;;;;5073757;28;20028;-66
2021/08/03 08:14:31;;;;;;;23.25;17.20;;;18.60;99.90;;;;;;5073116;28;20062;-66
2021/08/03 08:17:00;;;;;;;22.67;17.45;;;18.50;99.90;;;;;;5072212;28;20024;-65
2021/08/03 08:19:25;;;;;;;;;;;18.50;99.90;;;;;;5073150;28;20059;-65
2021/08/03 08:21:51;;;;;;;24.33;15.85;;;18.50;99.90;;;;;;5054914;28;19908;-66
2021/08/03 08:24:17;;;;;;;21.30;15.73;;;18.40;99.90;;;;;;5072398;28;20017;-66
2021/08/03 08:26:44;;;;;;;26.48;17.42;;;18.50;99.90;;;;;;5071992;28;20499;-66
2021/08/03 08:29:10;;;;;;;21.30;16.40;;;18.30;99.90;;;;;;5073493;28;20032;-66
2021/08/03 08:31:38;;;;;;;25.45;17.58;;;18.30;99.90;;;;;;5054950;28;20036;-66
2021/08/03 08:34:04;;;;;;;24.75;16.13;;;18.40;99.90;;;;;;5072496;28;20024;-65
2021/08/03 08:36:29;;;;;;;22.73;16.00;;;18.70;99.90;;;;;;5071599;28;20033;-66
2021/08/03 08:38:55;;;;;;;23.33;17.48;;;18.80;99.90;;;;;;5054249;28;20101;-66
2021/08/03 08:41:21;;;;;;;23.48;16.15;;;18.60;99.90;;;;;;5072073;28;20024;-66
2021/08/03 08:43:47;;;;;;;25.27;16.13;;;18.90;99.90;;;;;;5072459;28;20182;-66
2021/08/03 08:46:13;;;;;;;22.10;15.70;;;19.00;99.90;;;;;;5070665;28;20048;-66
2021/08/03 08:48:39;;;;;;;22.42;15.45;;;19.30;99.90;;;;;;5054387;28;20047;-66
2021/08/03 08:51:06;;;;;;;21.58;16.55;;;19.60;99.90;;;;;;5054139;28;20032;-65
2021/08/03 08:53:34;;;;;;;21.98;15.63;;;19.80;99.90;;;;;;5073568;28;20032;-65
2021/08/03 08:56:01;;;;;;;22.23;16.13;;;19.90;99.90;;;;;;5072788;28;20021;-67
2021/08/03 08:58:26;;;;;;;19.65;14.48;;;20.00;99.90;;;;;;5071592;28;20047;-66
2021/08/03 09:00:52;;;;;;;20.55;14.15;;;;;;;;;;5072228;28;20441;-66
2021/08/03 09:03:18;;;;;;;19.77;13.57;;;;;;;;;;5054512;28;20040;-66
2021/08/03 09:05:44;;;;;;;20.85;15.85;;;;;;;;;;5071602;28;20031;-66
2021/08/03 09:08:11;;;;;;;20.70;16.23;;;;;;;;;;5072178;28;20052;-66
2021/08/03 09:10:37;;;;;;;22.30;16.13;;;;;;;;;;5072594;28;20073;-66
2021/08/03 09:13:08;;;;;;;19.77;14.27;;;;;;;;;;5072361;28;20108;-66
2021/08/03 09:15:38;;;;;;;22.33;15.77;;;;;;;;;;5070921;28;20388;-66
2021/08/03 09:18:14;;;;;;;24.33;17.98;;;;;;;;;;5071744;28;20479;-66
2021/08/03 09:20:41;;;;;;;23.23;17.60;;;;;;;;;;5071860;28;20032;-66
2021/08/03 09:23:07;;;;;;;28.02;17.92;;;;;;;;;;5071807;28;20449;-67
2021/08/03 09:25:33;;;;;;;24.92;17.42;;;;;;;;;;5053273;28;20526;-66
2021/08/03 09:28:05;;;;;;;23.15;17.30;;;;;;;;;;5071397;28;20034;-66
2021/08/03 09:30:33;;;;;;;24.77;18.25;;;;;;;;;;5071145;28;20101;-66
2021/08/03 09:32:59;;;;;;;24.92;18.77;;;;;;;;;;5071047;28;20116;-66
2021/08/03 09:35:26;;;;;;;25.65;19.08;;;;;;;;;;5070515;28;20024;-65
2021/08/03 09:37:53;;;;;;;26.75;21.23;;;;;;;;;;5071009;28;20025;-65
2021/08/03 09:40:27;;;;;;;28.45;20.25;;;;;;;;;;5052769;28;20025;-66
2021/08/03 09:43:06;;;;;;;25.85;19.10;;;;;;;;;;5070812;28;20058;-64
2021/08/03 09:45:33;;;;;;;26.17;18.13;;;;;;;;;;5052158;28;20052;-66
2021/08/03 09:48:08;;;;;;;27.60;17.88;;;;;;;;;;5071037;28;20446;-65
2021/08/03 09:50:51;;;;;;;24.00;17.35;;;;;;;;;;5070758;28;20024;-66
2021/08/03 09:53:37;;;;;;;23.70;18.52;;;;;;;;;;5071015;28;20401;-66
2021/08/03 09:56:03;;;;;;;25.30;17.73;;;;;;;;;;5056183;28;20036;-66
2021/08/03 09:58:31;;;;;;;24.05;16.15;;;;;;;;;;5069248;28;20020;-66
2021/08/03 10:00:57;;;;;;;21.88;15.15;;;;;;;;;;5071155;28;20066;-66
2021/08/03 10:03:25;;;;;;;18.58;13.57;;;;;;;;;;5070802;28;20067;-66
2021/08/03 10:05:51;;;;;;;17.88;12.65;;;;;;;;;;5070339;28;20111;-66
2021/08/03 10:08:17;;;;;;;19.17;12.73;;;;;;;;;;5070985;28;20063;-67
2021/08/03 10:10:44;;;;;;;18.63;13.35;;;;;;;;;;5070983;28;20021;-67
2021/08/03 10:13:11;;;;;;;18.83;12.63;;;;;;;;;;5053217;28;20096;-66
2021/08/03 10:15:37;;;;;;;16.73;12.00;;;;;;;;;;5052058;28;20028;-66
2021/08/03 10:18:03;;;;;;;17.27;12.82;;;;;;;;;;5071049;28;20047;-66
2021/08/03 10:20:29;;;;;;;18.00;13.63;;;;;;;;;;5071148;28;20044;-66
2021/08/03 10:22:58;;;;;;;18.92;12.60;;;;;;;;;;5071913;28;20028;-66
2021/08/03 10:25:30;;;;;;;17.30;12.50;;;;;;;;;;5053466;28;20125;-66
2021/08/03 10:27:56;;;;;;;17.65;12.80;;;;;;;;;;5072663;28;20036;-66
2021/08/03 10:30:28;;;;;;;18.90;13.23;;;;;;;;;;5053665;28;20032;-64
2021/08/03 10:32:55;;;;;;;16.92;12.15;;;;;;;;;;5071429;28;20032;-67
2021/08/03 10:35:38;;;;;;;20.08;12.55;;;;;;;;;;5052872;28;20029;-66
2021/08/03 10:38:04;;;;;;;17.67;12.48;;;;;;;;;;5071365;28;20122;-66
2021/08/03 10:40:46;;;;;;;16.35;12.10;;;;;;;;;;5071507;28;20039;-65
2021/08/03 10:43:15;;;;;;;18.85;11.85;;;;;;;;;;5071378;28;20039;-66
2021/08/03 10:45:41;;;;;;;17.25;11.27;;;;;;;;;;5053671;28;20021;-66
2021/08/03 10:48:07;;;;;;;17.73;11.60;;;;;;;;;;5071785;28;20492;-67
2021/08/03 10:50:33;;;;;;;18.02;11.90;;;;;;;;;;5053510;28;20071;-66
2021/08/03 10:53:02;;;;;;;17.45;11.23;;;;;;;;;;5053298;28;20112;-66
2021/08/03 10:55:35;;;;;;;17.17;12.07;;;;;;;;;;5070615;28;20021;-66
2021/08/03 10:58:10;;;;;;;17.45;12.07;;;;;;;;;;5069792;28;20025;-67
2021/08/03 11:00:50;;;;;;;16.88;11.50;;;;;;;;;;5070658;28;20074;-66
2021/08/03 11:03:31;;;;;;;16.67;11.68;;;;;;;;;;5070669;28;20047;-64
2021/08/03 11:05:57;;;;;;;16.67;11.20;;;;;;;;;;5070144;28;20055;-66
2021/08/03 11:08:43;;;;;;;19.38;11.70;;;;;;;;;;5052612;28;20025;-66
2021/08/03 11:11:12;;;;;;;16.92;11.65;;;;;;;;;;5074864;28;20043;-67
2021/08/03 11:13:39;;;;;;;18.00;11.75;;;;;;;;;;5074090;28;20028;-66
2021/08/03 11:16:10;;;;;;;16.25;11.43;;;;;;;;;;5073435;28;20024;-66
2021/08/03 11:18:44;;;;;;;17.92;11.00;;;;;;;;;;5073744;28;20503;-66
2021/08/03 11:21:13;;;;;;;16.88;11.48;;;;;;;;;;5056579;28;20036;-65
2021/08/03 11:24:05;;;;;;;18.27;11.30;;;;;;;;;;5074386;28;20080;-65
2021/08/03 11:26:54;;;;;;;18.67;12.40;;;;;;;;;;5064765;28;20036;-66
2021/08/03 11:29:24;;;;;;;17.85;11.32;;;;;;;;;;5056353;28;20031;-66
2021/08/03 11:31:54;;;;;;;18.63;12.50;;;;;;;;;;5074325;28;20529;-66
2021/08/03 11:34:22;;;;;;;18.80;12.30;;;;;;;;;;5073840;28;20487;-66
2021/08/03 11:36:54;;;;;;;18.45;11.57;;;;;;;;;;5055498;28;20093;-67
2021/08/03 11:39:24;;;;;;;16.23;11.32;;;;;;;;;;5073809;28;20031;-64
2021/08/03 11:41:51;;;;;;;15.70;11.30;;;;;;;;;;5056114;28;20020;-66
2021/08/03 11:44:18;;;;;;;17.23;11.73;;;;;;;;;;5071351;22;20044;-63
2021/08/03 11:46:44;;;;;;;17.13;11.60;;;;;;;;;;5073877;28;20495;-63
2021/08/03 11:49:10;;;;;;;19.02;11.52;;;;;;;;;;5074464;28;20028;-63
2021/08/03 11:51:43;;;;;;;17.70;12.27;;;;;;;;;;5056770;28;20115;-62
2021/08/03 11:54:19;;;;;;;18.20;12.13;;;;;;;;;;5074637;28;20407;-63
2021/08/03 11:56:45;;;;;;;18.50;12.38;;;;;;;;;;5071737;28;20028;-63
2021/08/03 11:59:11;;;;;;;23.65;13.23;;;;;;;;;;5073687;28;20133;-63
2021/08/03 12:01:51;;;;;;;16.10;11.20;;;;;;;;;;5074165;28;20150;-64
2021/08/03 12:04:18;;;;;;;17.45;11.93;;;;;;;;;;5073904;28;20024;-64
2021/08/03 12:06:44;;;;;;;18.48;12.40;;;;;;;;;;5038820;28;20037;-64
2021/08/03 12:09:11;;;;;;;17.00;12.13;;;;;;;;;;5056169;28;20032;-64
2021/08/03 12:11:40;;;;;;;16.52;11.85;;;;;;;;;;5073948;28;20224;-61
2021/08/03 12:14:09;;;;;;;18.48;12.85;;;;;;;;;;5073552;28;20032;-61
2021/08/03 12:16:35;;;;;;;19.85;13.02;;;;;;;;;;5072933;28;20016;-61
2021/08/03 12:19:01;;;;;;;19.20;13.00;;;;;;;;;;5055394;28;20123;-62
2021/08/03 12:21:37;;;;;;;18.13;13.07;;;;;;;;;;5073460;28;20052;-61
2021/08/03 12:24:07;;;;;;;18.15;13.43;;;;;;;;;;5073696;28;20039;-64
2021/08/03 12:26:33;;;;;;;18.02;13.55;;;;;;;;;;5072119;28;20025;-63
2021/08/03 12:28:59;;;;;;;19.80;13.88;;;;;;;;;;5072307;28;20103;-64
2021/08/03 12:31:35;;;;;;;17.90;13.45;;;;;;;;;;5055287;28;20460;-63
2021/08/03 12:34:11;;;;;;;17.77;13.48;;;;;;;;;;5072215;28;20024;-63
2021/08/03 12:36:45;;;;;;;21.33;13.13;;;;;;;;;;5070696;28;20028;-63
2021/08/03 12:39:18;;;;;;;18.73;13.75;;;;;;;;;;5054378;28;20027;-63
2021/08/03 12:41:45;;;;;;;18.63;14.57;;;;;;;;;;5054266;28;20127;-63
2021/08/03 12:44:26;;;;;;;19.90;14.45;;;;;;;;;;5072717;28;20086;-63
2021/08/03 12:46:52;;;;;;;19.88;14.57;;;;;;;;;;5072280;28;20035;-63
2021/08/03 12:49:30;;;;;;;20.38;14.35;;;;;;;;;;5072640;28;20469;-63
2021/08/03 12:52:05;;;;;;;18.05;13.52;;;;;;;;;;5072532;28;20033;-63
2021/08/03 12:54:32;;;;;;;23.42;14.70;;;;;;;;;;5072630;28;20029;-63
2021/08/03 12:56:59;;;;;;;22.63;14.88;;;;;;;;;;5052707;28;20831;-64
2021/08/03 12:59:41;;;;;;;20.48;14.10;;;;;;;;;;5054779;28;20020;-63
2021/08/03 13:02:09;;;;;;;21.27;13.95;;;;;;;;;;5072467;28;20090;-63
2021/08/03 13:04:35;;;;;;;19.08;13.65;;;;;;;;;;5054261;28;20514;-64
2021/08/03 13:07:01;;;;;;;19.92;14.10;;;;;;;;;;5071519;28;20028;-63
2021/08/03 13:09:31;;;;;;;18.65;13.80;;;;;;;;;;5072387;28;20026;-63
2021/08/03 13:11:57;;;;;;;20.65;14.55;;;;;;;;;;5072336;28;20025;-64
2021/08/03 13:14:23;;;;;;;19.02;14.00;;;;;;;;;;5054238;28;20078;-63
2021/08/03 13:16:54;;;;;;;20.48;14.32;;;;;;;;;;5071820;28;20021;-63
2021/08/03 13:19:21;;;;;;;21.45;14.23;;;;;;;;;;5054244;28;20021;-64
2021/08/03 13:21:47;;;;;;;20.45;14.25;;;;;;;;;;5053938;28;20059;-64
2021/08/03 13:24:13;;;;;;;19.08;13.82;;;;;;;;;;5054043;28;20113;-64
2021/08/03 13:26:39;;;;;;;20.17;14.40;;;;;;;;;;5053033;28;20025;-63
2021/08/03 13:29:06;;;;;;;18.90;13.65;;;;;;;;;;5071893;28;20392;-65
2021/08/03 13:31:32;;;;;;;19.08;13.48;;;;;;;;;;5072705;28;20025;-64
2021/08/03 13:33:58;;;;;;;19.48;14.15;;;;;;;;;;5073386;28;20442;-64
2021/08/03 13:36:24;;;;;;;20.05;14.48;;;;;;;;;;5071018;28;20017;-64
2021/08/03 13:38:50;;;;;;;18.80;13.80;;;;;;;;;;5071701;28;20028;-64
2021/08/03 13:41:16;;;;;;;18.58;13.55;;;;;;;;;;5071510;28;20064;-65
2021/08/03 13:43:43;;;;;;;18.23;13.88;;;;;;;;;;5053456;28;20053;-66
2021/08/03 13:46:09;;;;;;;21.58;13.85;;;;;;;;;;5071003;28;20066;-64
2021/08/03 13:48:35;;;;;;;23.48;13.65;;;;;;;;;;5071683;28;20029;-64
2021/08/03 13:51:01;;;;;;;19.83;13.93;;;;;;;;;;5071327;28;20024;-64
2021/08/03 13:53:27;;;;;;;19.77;14.02;;;;;;;;;;5053361;28;20021;-64
2021/08/03 13:55:53;;;;;;;19.38;13.05;;;;;;;;;;5052794;28;20028;-64
2021/08/03 13:58:19;;;;;;;16.55;13.20;;;;;;;;;;5070409;28;20028;-64
2021/08/03 14:00:45;;;;;;;22.05;15.70;;;;;;;;;;5071118;28;20490;-64
2021/08/03 14:03:11;;;;;;;18.20;13.10;;;;;;;;;;5071044;28;20119;-64
2021/08/03 14:05:37;;;;;;;19.85;13.13;;;;;;;;;;5070732;28;20024;-65
2021/08/03 14:08:03;;;;;;;19.85;12.90;;;;;;;;;;5071562;28;20491;-65
2021/08/03 14:10:29;;;;;;;17.13;11.80;;;;;;;;;;5053412;28;20582;-65